This is the latest recevied weather packets stored in our database for station/object KO6LQJ. If no packets are shown the sender has not sent any weather packets the latest 1 day(s).
| Time | Temp. | Humidity | Pressure | Rain* | Wind** | Luminosity | Snow |
|---|---|---|---|---|---|---|---|
| 1778001163 | 16.67° C | 53% | 1016.1 hPa | 0 mm | 0 m/s | 168 W/m² | - |
| 1778000860 | 16.67° C | 53% | 1016.4 hPa | 0 mm | 0 m/s | 174 W/m² | - |
| 1778000558 | 16.67° C | 53% | 1016.4 hPa | 0 mm | 0 m/s | 151 W/m² | - |
| 1778000258 | 16.67° C | 53% | 1016.2 hPa | 0 mm | 0 m/s | 141 W/m² | - |
| 1777999954 | 16.11° C | 53% | 1016.3 hPa | 0 mm | 0 m/s | 147 W/m² | - |
| 1777999650 | 16.11° C | 56% | 1016.2 hPa | 0 mm | 0 m/s | 128 W/m² | - |
| 1777999347 | 16.11° C | 57% | 1016.2 hPa | 0 mm | 0 m/s | 107 W/m² | - |
| 1777999045 | 16.11° C | 57% | 1016 hPa | 0 mm | 0 m/s | 97 W/m² | - |
| 1777998743 | 16.67° C | 56% | 1016.1 hPa | 0 mm | 0 m/s | 114 W/m² | - |
| 1777998440 | 16.67° C | 56% | 1016.1 hPa | 0 mm | 0 m/s | 132 W/m² | - |
| 1777998137 | 17.22° C | 54% | 1016.3 hPa | 0 mm | 0 m/s | 185 W/m² | - |
| 1777997834 | 17.78° C | 54% | 1016 hPa | 0 mm | 0 m/s | 262 W/m² | - |
| 1777997532 | 16.67° C | 58% | 1016 hPa | 0 mm | 0 m/s | 651 W/m² | - |
| 1777997229 | 16.11° C | 59% | 1016.1 hPa | 0 mm | 0 m/s | 165 W/m² | - |
| 1777996927 | 16.11° C | 58% | 1016 hPa | 0 mm | 0 m/s | 147 W/m² | - |
| 1777996623 | 16.67° C | 57% | 1015.9 hPa | 0 mm | 0 m/s | 151 W/m² | - |
| 1777996319 | 16.11° C | 59% | 1016 hPa | 0 mm | 0 m/s | 158 W/m² | - |
| 1777996015 | 16.11° C | 59% | 1015.8 hPa | 0 mm | 0 m/s | 179 W/m² | - |
| 1777995712 | 16.11° C | 60% | 1015.9 hPa | 0 mm | 0 m/s | 179 W/m² | - |
| 1777995409 | 16.67° C | 58% | 1015.8 hPa | 0 mm | 0 m/s | 141 W/m² | - |
| 1777995106 | 16.67° C | 57% | 1015.6 hPa | 0 mm | 0 m/s | 137 W/m² | - |
| 1777994803 | 16.67° C | 56% | 1015.7 hPa | 0 mm | 0 m/s | 174 W/m² | - |
| 1777994498 | 17.22° C | 56% | 1015.9 hPa | 0 mm | 0 m/s | 245 W/m² | - |
| 1777994194 | 16.67° C | 58% | 1015.6 hPa | 0 mm | 0 m/s | 95 W/m² | - |
| 1777993891 | 17.22° C | 57% | 1015.7 hPa | 0 mm | 0 m/s | 149 W/m² | - |
* Rain latest hour (hover to see other rain measurements)
** Current wind speed in m/s (hover to see current wind gust speed)